East Montpelier, Vermont
Current Conditions -  °F | °C
As of 6:51 AM on Tuesday 27 Jan 2015 (Local Time) from KMPV Reporting Station
Overcast Overcast  
Wind Chill: -4°   Ceiling: 9500
Heat Index:   Visibility: 10mi
Dew Point: -2°   Wind: 8mph
Humidity: 64%   Direction: 350°N
Pressure: 29.85"   Gusts: NA
Location:  44.27°N, 72.49°W
Report Text: KMPV 271151Z AUTO 35007KT 10SM OVC095 M13/M19 A2985 RMK AO2 SLP135 T11331189 11128 21133 58011
Loading
Personal Weather Stations






























Interactive Weather Map New forecast layout! Learn more

10-Day Weather Forecast

Advertisements
Track Severe Weather on mobile